sensor_id;sensor_type;location;lat;lon;timestamp;pressure;altitude;pressure_sealevel;temperature;humidity
26443;BME280;5563;52.296;6.806;2023-01-31T00:01:14;102229.00;;;2.67;85.09
26443;BME280;5563;52.296;6.806;2023-01-31T00:03:55;102214.31;;;2.58;85.51
26443;BME280;5563;52.296;6.806;2023-01-31T00:06:25;102214.16;;;2.64;85.35
26443;BME280;5563;52.296;6.806;2023-01-31T00:08:59;102213.25;;;2.65;85.33
26443;BME280;5563;52.296;6.806;2023-01-31T00:11:45;102213.25;;;2.65;85.42
26443;BME280;5563;52.296;6.806;2023-01-31T00:14:17;102208.91;;;2.63;85.33
26443;BME280;5563;52.296;6.806;2023-01-31T00:16:51;102208.19;;;2.58;84.82
26443;BME280;5563;52.296;6.806;2023-01-31T00:19:24;102206.69;;;2.48;84.83
26443;BME280;5563;52.296;6.806;2023-01-31T00:21:52;102211.19;;;2.44;85.11
26443;BME280;5563;52.296;6.806;2023-01-31T00:24:25;102205.13;;;2.41;84.99
26443;BME280;5563;52.296;6.806;2023-01-31T00:26:58;102211.41;;;2.35;85.02
26443;BME280;5563;52.296;6.806;2023-01-31T00:29:24;102208.03;;;2.30;85.11
26443;BME280;5563;52.296;6.806;2023-01-31T00:31:58;102216.94;;;2.25;85.43
26443;BME280;5563;52.296;6.806;2023-01-31T00:34:24;102210.94;;;2.19;85.54
26443;BME280;5563;52.296;6.806;2023-01-31T00:36:58;102216.19;;;2.19;85.72
26443;BME280;5563;52.296;6.806;2023-01-31T00:39:31;102212.69;;;2.19;85.85
26443;BME280;5563;52.296;6.806;2023-01-31T00:41:57;102208.41;;;2.15;86.12
26443;BME280;5563;52.296;6.806;2023-01-31T00:44:31;102204.88;;;2.16;85.90
26443;BME280;5563;52.296;6.806;2023-01-31T00:47:04;102195.34;;;2.12;86.10
26443;BME280;5563;52.296;6.806;2023-01-31T00:49:37;102210.19;;;2.13;86.29
26443;BME280;5563;52.296;6.806;2023-01-31T00:52:03;102211.19;;;2.09;86.03
26443;BME280;5563;52.296;6.806;2023-01-31T00:54:37;102217.44;;;2.05;86.08
26443;BME280;5563;52.296;6.806;2023-01-31T00:57:04;102215.72;;;2.02;85.90
26443;BME280;5563;52.296;6.806;2023-01-31T00:59:38;102216.72;;;1.97;86.21
26443;BME280;5563;52.296;6.806;2023-01-31T01:02:04;102203.75;;;1.91;85.99
26443;BME280;5563;52.296;6.806;2023-01-31T01:04:38;102216.00;;;1.90;85.90
26443;BME280;5563;52.296;6.806;2023-01-31T01:07:04;102210.91;;;1.84;85.78
26443;BME280;5563;52.296;6.806;2023-01-31T01:09:38;102222.44;;;1.79;86.21
26443;BME280;5563;52.296;6.806;2023-01-31T01:12:17;102212.84;;;1.76;86.79
26443;BME280;5563;52.296;6.806;2023-01-31T01:14:51;102207.63;;;1.75;86.24
26443;BME280;5563;52.296;6.806;2023-01-31T01:17:17;102198.13;;;1.69;86.45
26443;BME280;5563;52.296;6.806;2023-01-31T01:19:51;102205.13;;;1.69;86.56
26443;BME280;5563;52.296;6.806;2023-01-31T01:22:17;102206.91;;;1.67;86.46
26443;BME280;5563;52.296;6.806;2023-01-31T01:24:51;102201.69;;;1.65;86.64
26443;BME280;5563;52.296;6.806;2023-01-31T01:27:24;102213.16;;;1.63;86.46
26443;BME280;5563;52.296;6.806;2023-01-31T01:30:00;102211.47;;;1.60;86.96
26443;BME280;5563;52.296;6.806;2023-01-31T01:32:34;102201.84;;;1.59;87.20
26443;BME280;5563;52.296;6.806;2023-01-31T01:35:01;102212.41;;;1.56;86.90
26443;BME280;5563;52.296;6.806;2023-01-31T01:37:34;102209.81;;;1.55;87.25
26443;BME280;5563;52.296;6.806;2023-01-31T01:40:07;102208.97;;;1.54;87.24
26443;BME280;5563;52.296;6.806;2023-01-31T01:42:35;102215.19;;;1.50;87.07
26443;BME280;5563;52.296;6.806;2023-01-31T01:45:11;102212.69;;;1.44;87.48
26443;BME280;5563;52.296;6.806;2023-01-31T01:47:52;102228.41;;;1.47;87.33
26443;BME280;5563;52.296;6.806;2023-01-31T01:53:09;102233.66;;;1.47;87.00
26443;BME280;5563;52.296;6.806;2023-01-31T01:55:47;102238.06;;;1.47;87.65
26443;BME280;5563;52.296;6.806;2023-01-31T01:58:26;102238.00;;;1.48;87.19
26443;BME280;5563;52.296;6.806;2023-01-31T02:01:04;102240.69;;;1.47;87.35
26443;BME280;5563;52.296;6.806;2023-01-31T02:03:38;102241.56;;;1.46;87.41
26443;BME280;5563;52.296;6.806;2023-01-31T02:06:13;102257.28;;;1.49;87.54
26443;BME280;5563;52.296;6.806;2023-01-31T02:08:41;102253.75;;;1.50;87.78
26443;BME280;5563;52.296;6.806;2023-01-31T02:11:21;102254.50;;;1.55;88.09
26443;BME280;5563;52.296;6.806;2023-01-31T02:14:00;102250.00;;;1.61;88.06
26443;BME280;5563;52.296;6.806;2023-01-31T02:16:34;102245.50;;;1.66;87.57
26443;BME280;5563;52.296;6.806;2023-01-31T02:19:04;102239.34;;;1.67;87.43
26443;BME280;5563;52.296;6.806;2023-01-31T02:24:37;102221.84;;;1.66;87.43
26443;BME280;5563;52.296;6.806;2023-01-31T02:27:42;102220.13;;;1.64;87.50
26443;BME280;5563;52.296;6.806;2023-01-31T02:30:35;102211.41;;;1.62;87.70
26443;BME280;5563;52.296;6.806;2023-01-31T02:42:14;102213.13;;;1.64;87.90
26443;BME280;5563;52.296;6.806;2023-01-31T02:45:08;102215.63;;;1.69;88.12
26443;BME280;5563;52.296;6.806;2023-01-31T02:48:05;102205.06;;;1.72;87.89
26443;BME280;5563;52.296;6.806;2023-01-31T02:50:40;102203.19;;;1.77;87.94
26443;BME280;5563;52.296;6.806;2023-01-31T02:53:24;102204.03;;;1.79;87.68
26443;BME280;5563;52.296;6.806;2023-01-31T02:56:08;102200.41;;;1.83;87.53
26443;BME280;5563;52.296;6.806;2023-01-31T03:01:30;102192.47;;;1.86;88.04
26443;BME280;5563;52.296;6.806;2023-01-31T03:04:02;102186.31;;;1.87;87.66
26443;BME280;5563;52.296;6.806;2023-01-31T03:09:17;102170.38;;;1.93;87.30
26443;BME280;5563;52.296;6.806;2023-01-31T03:14:46;102173.63;;;2.02;87.71
26443;BME280;5563;52.296;6.806;2023-01-31T03:17:49;102177.06;;;2.06;87.53
26443;BME280;5563;52.296;6.806;2023-01-31T03:23:17;102174.34;;;2.10;87.33
26443;BME280;5563;52.296;6.806;2023-01-31T03:25:45;102158.38;;;2.16;87.21
26443;BME280;5563;52.296;6.806;2023-01-31T03:28:22;102166.03;;;2.26;87.46
26443;BME280;5563;52.296;6.806;2023-01-31T03:33:51;102173.66;;;2.36;87.00
26443;BME280;5563;52.296;6.806;2023-01-31T03:36:34;102154.94;;;2.47;86.61
26443;BME280;5563;52.296;6.806;2023-01-31T03:42:06;102151.19;;;2.57;86.36
26443;BME280;5563;52.296;6.806;2023-01-31T03:45:08;102146.66;;;2.62;86.45
26443;BME280;5563;52.296;6.806;2023-01-31T03:47:38;102144.00;;;2.62;86.25
26443;BME280;5563;52.296;6.806;2023-01-31T03:50:20;102147.47;;;2.64;85.89
26443;BME280;5563;52.296;6.806;2023-01-31T03:52:59;102141.25;;;2.66;86.31
26443;BME280;5563;52.296;6.806;2023-01-31T03:55:39;102140.34;;;2.67;86.27
26443;BME280;5563;52.296;6.806;2023-01-31T03:58:10;102138.59;;;2.66;86.27
26443;BME280;5563;52.296;6.806;2023-01-31T04:00:46;102142.06;;;2.68;86.34
26443;BME280;5563;52.296;6.806;2023-01-31T04:03:19;102135.03;;;2.69;86.38
26443;BME280;5563;52.296;6.806;2023-01-31T04:05:53;102133.22;;;2.71;86.40
26443;BME280;5563;52.296;6.806;2023-01-31T04:08:26;102139.28;;;2.74;86.78
26443;BME280;5563;52.296;6.806;2023-01-31T04:11:09;102127.97;;;2.71;86.57
26443;BME280;5563;52.296;6.806;2023-01-31T04:13:38;102126.09;;;2.74;86.54
26443;BME280;5563;52.296;6.806;2023-01-31T04:16:13;102118.97;;;2.78;86.90
26443;BME280;5563;52.296;6.806;2023-01-31T04:18:39;102125.84;;;2.83;86.73
26443;BME280;5563;52.296;6.806;2023-01-31T04:21:06;102121.34;;;2.87;86.84
26443;BME280;5563;52.296;6.806;2023-01-31T04:23:40;102102.81;;;2.90;87.06
26443;BME280;5563;52.296;6.806;2023-01-31T04:26:13;102113.25;;;2.93;87.11
26443;BME280;5563;52.296;6.806;2023-01-31T04:28:47;102114.06;;;2.95;86.89
26443;BME280;5563;52.296;6.806;2023-01-31T04:31:14;102104.31;;;2.98;87.07
26443;BME280;5563;52.296;6.806;2023-01-31T04:33:47;102094.59;;;3.00;87.28
26443;BME280;5563;52.296;6.806;2023-01-31T04:36:14;102100.59;;;3.05;87.11
26443;BME280;5563;52.296;6.806;2023-01-31T04:38:40;102084.59;;;3.11;87.38
26443;BME280;5563;52.296;6.806;2023-01-31T04:41:14;102087.09;;;3.16;87.26
26443;BME280;5563;52.296;6.806;2023-01-31T04:43:47;102095.00;;;3.16;87.27
26443;BME280;5563;52.296;6.806;2023-01-31T04:46:20;102084.50;;;3.14;86.92
26443;BME280;5563;52.296;6.806;2023-01-31T04:48:53;102080.22;;;3.12;86.57
26443;BME280;5563;52.296;6.806;2023-01-31T04:51:20;102075.84;;;3.11;87.05
26443;BME280;5563;52.296;6.806;2023-01-31T04:53:46;102061.88;;;3.07;87.02
26443;BME280;5563;52.296;6.806;2023-01-31T04:56:20;102058.50;;;3.04;87.17
26443;BME280;5563;52.296;6.806;2023-01-31T04:58:47;102061.03;;;3.07;87.01
26443;BME280;5563;52.296;6.806;2023-01-31T05:01:21;102057.44;;;3.09;87.09
26443;BME280;5563;52.296;6.806;2023-01-31T05:03:48;102053.13;;;3.07;87.39
26443;BME280;5563;52.296;6.806;2023-01-31T05:06:21;102050.34;;;3.11;87.71
26443;BME280;5563;52.296;6.806;2023-01-31T05:08:48;102040.63;;;3.13;87.72
26443;BME280;5563;52.296;6.806;2023-01-31T05:11:22;102037.00;;;3.17;87.41
26443;BME280;5563;52.296;6.806;2023-01-31T05:13:55;102031.75;;;3.17;87.73
26443;BME280;5563;52.296;6.806;2023-01-31T05:16:28;102039.38;;;3.25;88.03
26443;BME280;5563;52.296;6.806;2023-01-31T05:18:55;102019.22;;;3.24;87.80
26443;BME280;5563;52.296;6.806;2023-01-31T05:21:29;102019.22;;;3.24;87.33
26443;BME280;5563;52.296;6.806;2023-01-31T05:24:16;102006.16;;;3.19;87.53
26443;BME280;5563;52.296;6.806;2023-01-31T05:26:49;102015.72;;;3.23;87.93
26443;BME280;5563;52.296;6.806;2023-01-31T05:29:18;101999.78;;;3.26;87.92
26443;BME280;5563;52.296;6.806;2023-01-31T05:31:54;102008.44;;;3.32;87.91
26443;BME280;5563;52.296;6.806;2023-01-31T05:34:22;102011.06;;;3.32;87.78
26443;BME280;5563;52.296;6.806;2023-01-31T05:36:58;102017.13;;;3.33;88.16
26443;BME280;5563;52.296;6.806;2023-01-31T05:39:25;102013.66;;;3.33;87.93
26443;BME280;5563;52.296;6.806;2023-01-31T05:41:58;102015.41;;;3.33;88.02
26443;BME280;5563;52.296;6.806;2023-01-31T05:44:25;101999.59;;;3.33;87.87
26443;BME280;5563;52.296;6.806;2023-01-31T05:46:58;102011.03;;;3.33;87.92
26443;BME280;5563;52.296;6.806;2023-01-31T05:49:33;102003.25;;;3.28;88.18
26443;BME280;5563;52.296;6.806;2023-01-31T05:52:00;102015.34;;;3.34;88.32
26443;BME280;5563;52.296;6.806;2023-01-31T05:54:33;102023.22;;;3.36;88.53
26443;BME280;5563;52.296;6.806;2023-01-31T05:57:06;102014.34;;;3.38;88.53
26443;BME280;5563;52.296;6.806;2023-01-31T05:59:40;102020.56;;;3.36;88.67
26443;BME280;5563;52.296;6.806;2023-01-31T06:02:07;102024.03;;;3.38;88.25
26443;BME280;5563;52.296;6.806;2023-01-31T06:04:43;102014.34;;;3.38;88.32
26443;BME280;5563;52.296;6.806;2023-01-31T06:07:16;102006.41;;;3.40;88.93
26443;BME280;5563;52.296;6.806;2023-01-31T06:09:49;102004.56;;;3.42;88.51
26443;BME280;5563;52.296;6.806;2023-01-31T06:12:31;102018.34;;;3.50;88.65
26443;BME280;5563;52.296;6.806;2023-01-31T06:15:11;102012.13;;;3.52;88.92
26443;BME280;5563;52.296;6.806;2023-01-31T06:17:45;102018.09;;;3.57;88.61
26443;BME280;5563;52.296;6.806;2023-01-31T06:20:19;102016.97;;;3.64;89.07
26443;BME280;5563;52.296;6.806;2023-01-31T06:22:52;102015.22;;;3.65;88.63
26443;BME280;5563;52.296;6.806;2023-01-31T06:25:19;102024.66;;;3.72;88.66
26443;BME280;5563;52.296;6.806;2023-01-31T06:27:54;102020.06;;;3.77;88.79
26443;BME280;5563;52.296;6.806;2023-01-31T06:30:20;102013.72;;;3.82;88.54
26443;BME280;5563;52.296;6.806;2023-01-31T06:32:54;102005.75;;;3.84;88.22
26443;BME280;5563;52.296;6.806;2023-01-31T06:35:21;101995.91;;;3.89;88.35
26443;BME280;5563;52.296;6.806;2023-01-31T06:37:55;101995.06;;;3.88;88.17
26443;BME280;5563;52.296;6.806;2023-01-31T06:40:29;101989.66;;;3.91;88.45
26443;BME280;5563;52.296;6.806;2023-01-31T06:42:57;101985.22;;;3.93;88.62
26443;BME280;5563;52.296;6.806;2023-01-31T06:45:30;101982.44;;;3.96;88.24
26443;BME280;5563;52.296;6.806;2023-01-31T06:48:03;101980.75;;;3.95;88.19
26443;BME280;5563;52.296;6.806;2023-01-31T06:50:36;101993.88;;;3.97;88.26
26443;BME280;5563;52.296;6.806;2023-01-31T06:53:10;101987.72;;;3.96;88.14
26443;BME280;5563;52.296;6.806;2023-01-31T06:55:43;101977.13;;;3.98;88.33
26443;BME280;5563;52.296;6.806;2023-01-31T06:58:10;101978.03;;;3.97;88.25
26443;BME280;5563;52.296;6.806;2023-01-31T07:00:46;101968.50;;;3.93;88.50
26443;BME280;5563;52.296;6.806;2023-01-31T07:03:13;101971.03;;;3.96;88.43
26443;BME280;5563;52.296;6.806;2023-01-31T07:05:46;101977.88;;;4.01;88.65
26443;BME280;5563;52.296;6.806;2023-01-31T07:08:14;101965.47;;;4.03;88.39
26443;BME280;5563;52.296;6.806;2023-01-31T07:10:53;101955.06;;;4.00;88.30
26443;BME280;5563;52.296;6.806;2023-01-31T07:13:20;101971.63;;;4.04;88.56
26443;BME280;5563;52.296;6.806;2023-01-31T07:15:54;101962.91;;;4.02;88.44
26443;BME280;5563;52.296;6.806;2023-01-31T07:18:22;101969.00;;;4.04;88.59
26443;BME280;5563;52.296;6.806;2023-01-31T07:20:55;101954.13;;;4.01;88.87
26443;BME280;5563;52.296;6.806;2023-01-31T07:23:22;101963.78;;;4.02;89.16
26443;BME280;5563;52.296;6.806;2023-01-31T07:25:55;101952.41;;;4.00;89.35
26443;BME280;5563;52.296;6.806;2023-01-31T07:28:28;101941.09;;;3.97;89.62
26443;BME280;5563;52.296;6.806;2023-01-31T07:31:10;101944.59;;;3.97;89.76
26443;BME280;5563;52.296;6.806;2023-01-31T07:33:38;101946.44;;;3.95;89.94
26443;BME280;5563;52.296;6.806;2023-01-31T07:36:13;101933.25;;;3.95;89.80
26443;BME280;5563;52.296;6.806;2023-01-31T07:38:47;101933.28;;;3.94;90.05
26443;BME280;5563;52.296;6.806;2023-01-31T07:41:14;101940.28;;;3.95;90.07
26443;BME280;5563;52.296;6.806;2023-01-31T07:43:48;101938.34;;;4.00;89.78
26443;BME280;5563;52.296;6.806;2023-01-31T07:46:22;101938.41;;;3.98;89.88
26443;BME280;5563;52.296;6.806;2023-01-31T07:48:55;101930.38;;;4.01;89.84
26443;BME280;5563;52.296;6.806;2023-01-31T07:51:22;101928.47;;;4.05;89.92
26443;BME280;5563;52.296;6.806;2023-01-31T07:53:55;101926.72;;;4.05;90.05
26443;BME280;5563;52.296;6.806;2023-01-31T07:56:29;101918.91;;;4.02;90.07
26443;BME280;5563;52.296;6.806;2023-01-31T07:58:57;101932.91;;;4.04;89.79
26443;BME280;5563;52.296;6.806;2023-01-31T08:01:31;101920.50;;;4.06;90.05
26443;BME280;5563;52.296;6.806;2023-01-31T08:04:23;101912.56;;;4.08;89.69
26443;BME280;5563;52.296;6.806;2023-01-31T08:06:56;101906.28;;;4.10;89.64
26443;BME280;5563;52.296;6.806;2023-01-31T08:09:25;101905.31;;;4.13;89.49
26443;BME280;5563;52.296;6.806;2023-01-31T08:11:58;101888.81;;;4.08;89.48
26443;BME280;5563;52.296;6.806;2023-01-31T08:14:38;101891.31;;;4.11;89.51
26443;BME280;5563;52.296;6.806;2023-01-31T08:17:05;101904.44;;;4.12;89.50
26443;BME280;5563;52.296;6.806;2023-01-31T08:19:40;101899.13;;;4.14;89.39
26443;BME280;5563;52.296;6.806;2023-01-31T08:22:07;101899.06;;;4.15;89.14
26443;BME280;5563;52.296;6.806;2023-01-31T08:24:40;101879.03;;;4.10;89.28
26443;BME280;5563;52.296;6.806;2023-01-31T08:27:07;101869.22;;;4.13;89.19
26443;BME280;5563;52.296;6.806;2023-01-31T08:29:40;101874.41;;;4.16;89.21
26443;BME280;5563;52.296;6.806;2023-01-31T08:32:07;101857.75;;;4.14;88.91
26443;BME280;5563;52.296;6.806;2023-01-31T08:34:40;101872.38;;;4.23;88.80
26443;BME280;5563;52.296;6.806;2023-01-31T08:37:15;101858.25;;;4.24;88.46
26443;BME280;5563;52.296;6.806;2023-01-31T08:39:48;101861.59;;;4.29;88.19
26443;BME280;5563;52.296;6.806;2023-01-31T08:42:15;101859.75;;;4.31;88.68
26443;BME280;5563;52.296;6.806;2023-01-31T08:44:48;101863.25;;;4.31;88.18
26443;BME280;5563;52.296;6.806;2023-01-31T08:47:15;101857.84;;;4.34;88.12
26443;BME280;5563;52.296;6.806;2023-01-31T08:49:48;101850.69;;;4.38;88.20
26443;BME280;5563;52.296;6.806;2023-01-31T08:52:15;101858.59;;;4.38;88.06
26443;BME280;5563;52.296;6.806;2023-01-31T08:54:48;101853.00;;;4.46;87.83
26443;BME280;5563;52.296;6.806;2023-01-31T08:57:15;101845.94;;;4.46;88.13
26443;BME280;5563;52.296;6.806;2023-01-31T08:59:48;101844.97;;;4.49;88.02
26443;BME280;5563;52.296;6.806;2023-01-31T09:02:21;101846.53;;;4.53;87.88
26443;BME280;5563;52.296;6.806;2023-01-31T09:04:48;101839.44;;;4.55;87.58
26443;BME280;5563;52.296;6.806;2023-01-31T09:07:15;101843.75;;;4.57;87.75
26443;BME280;5563;52.296;6.806;2023-01-31T09:10:01;101837.47;;;4.60;87.61
26443;BME280;5563;52.296;6.806;2023-01-31T09:12:34;101834.78;;;4.61;87.37
26443;BME280;5563;52.296;6.806;2023-01-31T09:15:07;101829.44;;;4.63;87.47
26443;BME280;5563;52.296;6.806;2023-01-31T09:17:41;101832.91;;;4.63;87.66
26443;BME280;5563;52.296;6.806;2023-01-31T09:20:09;101840.72;;;4.66;87.52
26443;BME280;5563;52.296;6.806;2023-01-31T09:22:43;101825.72;;;4.67;87.35
26443;BME280;5563;52.296;6.806;2023-01-31T09:25:17;101824.81;;;4.68;87.30
26443;BME280;5563;52.296;6.806;2023-01-31T09:28:09;101818.78;;;4.64;87.50
26443;BME280;5563;52.296;6.806;2023-01-31T09:30:36;101828.25;;;4.70;87.32
26443;BME280;5563;52.296;6.806;2023-01-31T09:33:11;101830.91;;;4.70;87.11
26443;BME280;5563;52.296;6.806;2023-01-31T09:36:00;101847.56;;;4.72;87.06
26443;BME280;5563;52.296;6.806;2023-01-31T09:38:34;101851.09;;;4.71;87.02
26443;BME280;5563;52.296;6.806;2023-01-31T09:41:28;101849.50;;;4.67;86.99
26443;BME280;5563;52.296;6.806;2023-01-31T09:44:13;101849.31;;;4.71;87.10
26443;BME280;5563;52.296;6.806;2023-01-31T09:47:30;101836.97;;;4.72;87.18
26443;BME280;5563;52.296;6.806;2023-01-31T09:52:56;101850.00;;;4.76;87.00
26443;BME280;5563;52.296;6.806;2023-01-31T09:55:47;101837.66;;;4.77;87.04
26443;BME280;5563;52.296;6.806;2023-01-31T10:01:13;101834.00;;;4.79;87.07
26443;BME280;5563;52.296;6.806;2023-01-31T10:04:07;101827.81;;;4.80;86.68
26443;BME280;5563;52.296;6.806;2023-01-31T10:06:49;101822.25;;;4.86;86.40
26443;BME280;5563;52.296;6.806;2023-01-31T10:10:05;101800.47;;;4.81;86.55
26443;BME280;5563;52.296;6.806;2023-01-31T10:12:44;101810.72;;;4.89;86.71
26443;BME280;5563;52.296;6.806;2023-01-31T10:15:31;101803.66;;;4.89;86.42
26443;BME280;5563;52.296;6.806;2023-01-31T10:18:12;101796.56;;;4.90;86.38
26443;BME280;5563;52.296;6.806;2023-01-31T10:21:21;101790.22;;;4.94;86.50
26443;BME280;5563;52.296;6.806;2023-01-31T10:24:03;101787.44;;;4.97;86.59
26443;BME280;5563;52.296;6.806;2023-01-31T10:26:36;101788.25;;;4.99;86.08
26443;BME280;5563;52.296;6.806;2023-01-31T10:31:43;101787.00;;;5.07;86.16
26443;BME280;5563;52.296;6.806;2023-01-31T10:34:31;101795.53;;;5.14;86.20
26443;BME280;5563;52.296;6.806;2023-01-31T10:37:12;101794.66;;;5.13;86.05
26443;BME280;5563;52.296;6.806;2023-01-31T10:39:54;101792.03;;;5.13;85.95
26443;BME280;5563;52.296;6.806;2023-01-31T10:42:35;101787.53;;;5.15;85.97
26443;BME280;5563;52.296;6.806;2023-01-31T10:45:22;101788.47;;;5.14;85.75
26443;BME280;5563;52.296;6.806;2023-01-31T10:48:10;101775.38;;;5.11;85.83
26443;BME280;5563;52.296;6.806;2023-01-31T10:56:33;101778.66;;;5.16;85.73
26443;BME280;5563;52.296;6.806;2023-01-31T10:59:10;101779.59;;;5.15;86.12
26443;BME280;5563;52.296;6.806;2023-01-31T11:01:44;101781.38;;;5.15;85.84
26443;BME280;5563;52.296;6.806;2023-01-31T11:04:33;101771.53;;;5.18;86.06
26443;BME280;5563;52.296;6.806;2023-01-31T11:07:08;101772.47;;;5.17;85.66
26443;BME280;5563;52.296;6.806;2023-01-31T11:09:49;101768.97;;;5.17;85.94
26443;BME280;5563;52.296;6.806;2023-01-31T11:12:50;101774.16;;;5.18;86.05
26443;BME280;5563;52.296;6.806;2023-01-31T11:15:27;101757.59;;;5.15;86.09
26443;BME280;5563;52.296;6.806;2023-01-31T11:18:01;101775.84;;;5.21;85.82
26443;BME280;5563;52.296;6.806;2023-01-31T11:20:31;101778.47;;;5.21;85.79
26443;BME280;5563;52.296;6.806;2023-01-31T11:23:06;101782.00;;;5.21;86.03
26443;BME280;5563;52.296;6.806;2023-01-31T11:25:38;101762.63;;;5.21;86.07
26443;BME280;5563;52.296;6.806;2023-01-31T11:28:34;101763.34;;;5.24;86.11
26443;BME280;5563;52.296;6.806;2023-01-31T11:31:03;101759.69;;;5.27;85.90
26443;BME280;5563;52.296;6.806;2023-01-31T11:33:43;101755.34;;;5.26;86.30
26443;BME280;5563;52.296;6.806;2023-01-31T11:36:18;101759.66;;;5.28;86.64
26443;BME280;5563;52.296;6.806;2023-01-31T11:38:54;101767.63;;;5.27;86.87
26443;BME280;5563;52.296;6.806;2023-01-31T11:41:33;101754.47;;;5.25;87.57
26443;BME280;5563;52.296;6.806;2023-01-31T11:44:14;101722.97;;;5.21;87.69
26443;BME280;5563;52.296;6.806;2023-01-31T11:46:55;101734.25;;;5.24;88.55
26443;BME280;5563;52.296;6.806;2023-01-31T11:49:40;101730.75;;;5.24;88.97
26443;BME280;5563;52.296;6.806;2023-01-31T11:52:31;101728.31;;;5.19;88.96
26443;BME280;5563;52.296;6.806;2023-01-31T11:55:07;101726.75;;;5.15;89.89
26443;BME280;5563;52.296;6.806;2023-01-31T11:57:42;101716.31;;;5.12;89.92
26443;BME280;5563;52.296;6.806;2023-01-31T12:00:22;101717.38;;;5.08;90.11
26443;BME280;5563;52.296;6.806;2023-01-31T12:03:07;101720.06;;;5.07;90.66
26443;BME280;5563;52.296;6.806;2023-01-31T12:05:49;101717.44;;;5.07;91.01
26443;BME280;5563;52.296;6.806;2023-01-31T12:08:35;101718.63;;;5.00;90.90
26443;BME280;5563;52.296;6.806;2023-01-31T12:14:02;101710.41;;;5.06;91.16
26443;BME280;5563;52.296;6.806;2023-01-31T12:16:42;101714.72;;;5.08;91.52
26443;BME280;5563;52.296;6.806;2023-01-31T12:19:28;101709.38;;;5.10;91.56
26443;BME280;5563;52.296;6.806;2023-01-31T12:22:21;101708.41;;;5.11;91.80
26443;BME280;5563;52.296;6.806;2023-01-31T12:28:09;101713.03;;;5.26;92.33
26443;BME280;5563;52.296;6.806;2023-01-31T12:31:00;101718.06;;;5.32;92.48
26443;BME280;5563;52.296;6.806;2023-01-31T12:37:28;101711.50;;;5.40;92.20
26443;BME280;5563;52.296;6.806;2023-01-31T12:42:58;101695.31;;;5.46;92.45
26443;BME280;5563;52.296;6.806;2023-01-31T12:51:45;101694.81;;;5.57;92.51
26443;BME280;5563;52.296;6.806;2023-01-31T12:57:15;101698.91;;;5.64;92.47
26443;BME280;5563;52.296;6.806;2023-01-31T13:00:02;101684.84;;;5.64;92.65
26443;BME280;5563;52.296;6.806;2023-01-31T13:05:55;101678.88;;;5.77;92.59
26443;BME280;5563;52.296;6.806;2023-01-31T13:08:30;101677.03;;;5.79;92.64
26443;BME280;5563;52.296;6.806;2023-01-31T13:11:08;101680.34;;;5.84;92.76
26443;BME280;5563;52.296;6.806;2023-01-31T13:13:47;101671.53;;;5.84;92.67
26443;BME280;5563;52.296;6.806;2023-01-31T13:16:31;101669.31;;;5.93;92.63
26443;BME280;5563;52.296;6.806;2023-01-31T13:19:31;101667.28;;;5.98;92.48
26443;BME280;5563;52.296;6.806;2023-01-31T13:22:33;101664.34;;;6.04;92.40
26443;BME280;5563;52.296;6.806;2023-01-31T13:25:15;101667.63;;;6.09;92.16
26443;BME280;5563;52.296;6.806;2023-01-31T13:27:56;101671.97;;;6.10;92.05
26443;BME280;5563;52.296;6.806;2023-01-31T13:30:49;101669.75;;;6.20;91.98
26443;BME280;5563;52.296;6.806;2023-01-31T13:33:45;101670.19;;;6.28;91.89
26443;BME280;5563;52.296;6.806;2023-01-31T13:38:56;101666.25;;;6.36;91.65
26443;BME280;5563;52.296;6.806;2023-01-31T13:41:32;101674.03;;;6.39;91.26
26443;BME280;5563;52.296;6.806;2023-01-31T13:44:11;101659.84;;;6.40;91.37
26443;BME280;5563;52.296;6.806;2023-01-31T13:46:44;101657.91;;;6.44;91.28
26443;BME280;5563;52.296;6.806;2023-01-31T13:49:36;101665.63;;;6.48;91.13
26443;BME280;5563;52.296;6.806;2023-01-31T13:52:18;101653.25;;;6.49;90.85
26443;BME280;5563;52.296;6.806;2023-01-31T13:54:57;101661.81;;;6.54;90.75
26443;BME280;5563;52.296;6.806;2023-01-31T13:57:29;101666.75;;;6.62;90.60
26443;BME280;5563;52.296;6.806;2023-01-31T14:00:17;101663.75;;;6.68;90.83
26443;BME280;5563;52.296;6.806;2023-01-31T14:03:06;101664.28;;;6.74;90.52
26443;BME280;5563;52.296;6.806;2023-01-31T14:11:42;101670.66;;;6.87;89.95
26443;BME280;5563;52.296;6.806;2023-01-31T14:14:39;101654.69;;;6.89;89.46
26443;BME280;5563;52.296;6.806;2023-01-31T14:27:45;101665.03;;;7.26;88.40
26443;BME280;5563;52.296;6.806;2023-01-31T14:30:40;101660.16;;;7.18;88.44
26443;BME280;5563;52.296;6.806;2023-01-31T14:33:22;101679.56;;;7.19;88.31
26443;BME280;5563;52.296;6.806;2023-01-31T14:36:14;101693.00;;;7.16;88.45
26443;BME280;5563;52.296;6.806;2023-01-31T14:48:17;101689.66;;;7.12;88.21
26443;BME280;5563;52.296;6.806;2023-01-31T14:51:17;101694.66;;;7.18;87.89
26443;BME280;5563;52.296;6.806;2023-01-31T14:54:15;101707.56;;;7.24;87.55
26443;BME280;5563;52.296;6.806;2023-01-31T14:57:11;101698.25;;;7.33;87.02
26443;BME280;5563;52.296;6.806;2023-01-31T14:59:57;101685.06;;;7.31;86.09
26443;BME280;5563;52.296;6.806;2023-01-31T15:05:17;101715.47;;;7.41;86.07
26443;BME280;5563;52.296;6.806;2023-01-31T15:10:56;101707.19;;;7.47;85.79
26443;BME280;5563;52.296;6.806;2023-01-31T15:13:49;101710.69;;;7.48;86.07
26443;BME280;5563;52.296;6.806;2023-01-31T15:16:28;101715.31;;;7.44;85.65
26443;BME280;5563;52.296;6.806;2023-01-31T15:19:11;101716.19;;;7.45;85.64
26443;BME280;5563;52.296;6.806;2023-01-31T15:21:55;101724.13;;;7.45;85.42
26443;BME280;5563;52.296;6.806;2023-01-31T15:24:29;101720.34;;;7.49;85.17
26443;BME280;5563;52.296;6.806;2023-01-31T15:27:13;101730.13;;;7.48;84.91
26443;BME280;5563;52.296;6.806;2023-01-31T15:32:33;101755.63;;;7.51;83.57
26443;BME280;5563;52.296;6.806;2023-01-31T15:38:11;101751.72;;;7.58;81.40
26443;BME280;5563;52.296;6.806;2023-01-31T15:43:36;101728.50;;;7.61;79.85
26443;BME280;5563;52.296;6.806;2023-01-31T15:46:27;101742.47;;;7.65;80.68
26443;BME280;5563;52.296;6.806;2023-01-31T15:49:01;101746.09;;;7.64;79.13
26443;BME280;5563;52.296;6.806;2023-01-31T15:51:28;101741.59;;;7.64;79.73
26443;BME280;5563;52.296;6.806;2023-01-31T15:54:04;101748.88;;;7.61;79.72